Hlavní strana
METAR-TAF:

METAR-TAF

Letiště :

Alice Springs, Austrálie

zeměpisná šířka: 23-48S, zeměpisná délka: 133-53E, výška: 545 m

Aktuální stav počasí

Zpráva byla vytvořena před 27 minutami, v 22:30 UTC
Severoseverozápadní vítr 3 kt
Teplota 1°C
Vlhkost vzduchu 59%
Tlak 1025 hPa
Viditelnost 10 km a více

METAR: YBAS 182230Z AUTO 33003KT 9999 // NCD 01/M06 Q1025 RF00.0/000.0

Čas: 08:27 (22:57 UTC)

Předpověď počasí

Zpráva byla vytvořena před 5 hodinami a 50 minutami, v 17:07 UTC
Předpověď platná od 18 v 18 UTC do 19 v 18 UTC
Západoseverozápadní vítr 5 kt
Viditelnost 10 km a více
Žádná oblačnost pod 1500 m, nevyskytují se cumulonimby.
Od 19 v 0000 UTC
Východoseverovýchodní vítr 10 kt
Viditelnost 10 km a více
Žádná oblačnost pod 1500 m, nevyskytují se cumulonimby.
Od 19 v 1400 UTC
Západoseverozápadní vítr 5 kt
Viditelnost 10 km a více
Žádná oblačnost pod 1500 m, nevyskytují se cumulonimby.

TAF: YBAS 181707Z 1818/1918 30005KT CAVOK FM190000 06010KT CAVOK FM191400 30005KT CAVOK

Stav a předpovědi počasí z více než 4 000 letišť (zprávy METAR a TAF).

Červené a žluté tečky na mapě představují dostupné meteorologické stanice.

Když kurzor umístíte na tečku, zobrazí se název stanice.

Pak kliknutím zobrazíte stav a předpověď počasí.

Chcete-li změnit mapu, kliknutím na zelené tlačítko se znaménkem +mapu přiblížíte, kliknutím na zelené tlačítko se znaménkem – mapu oddálíte a kliknutím na zelené šipky přejdete na sousední mapy.


METAR-TAF: